sensor_id;sensor_type;location;lat;lon;timestamp;P1;durP1;ratioP1;P2;durP2;ratioP2
5787;SDS011;2920;48.158;12.254;2023-07-02T00:02:04;6.70;;;2.42;;
5787;SDS011;2920;48.158;12.254;2023-07-02T00:04:30;4.88;;;2.78;;
5787;SDS011;2920;48.158;12.254;2023-07-02T00:06:55;3.53;;;2.47;;
5787;SDS011;2920;48.158;12.254;2023-07-02T00:09:20;5.63;;;2.60;;
5787;SDS011;2920;48.158;12.254;2023-07-02T00:11:45;3.88;;;2.38;;
5787;SDS011;2920;48.158;12.254;2023-07-02T00:14:11;3.15;;;2.53;;
5787;SDS011;2920;48.158;12.254;2023-07-02T00:16:42;4.03;;;2.22;;
5787;SDS011;2920;48.158;12.254;2023-07-02T00:19:09;3.25;;;2.33;;
5787;SDS011;2920;48.158;12.254;2023-07-02T00:21:34;3.78;;;2.60;;
5787;SDS011;2920;48.158;12.254;2023-07-02T00:24:02;5.07;;;2.70;;
5787;SDS011;2920;48.158;12.254;2023-07-02T00:26:27;4.55;;;3.35;;
5787;SDS011;2920;48.158;12.254;2023-07-02T00:28:53;5.78;;;2.67;;
5787;SDS011;2920;48.158;12.254;2023-07-02T00:31:20;4.15;;;2.78;;
5787;SDS011;2920;48.158;12.254;2023-07-02T00:33:45;3.63;;;2.58;;
5787;SDS011;2920;48.158;12.254;2023-07-02T00:36:11;3.20;;;2.50;;
5787;SDS011;2920;48.158;12.254;2023-07-02T00:38:39;3.80;;;2.67;;
5787;SDS011;2920;48.158;12.254;2023-07-02T00:41:05;4.18;;;3.08;;
5787;SDS011;2920;48.158;12.254;2023-07-02T00:43:31;4.03;;;2.85;;
5787;SDS011;2920;48.158;12.254;2023-07-02T00:45:56;5.30;;;2.47;;
5787;SDS011;2920;48.158;12.254;2023-07-02T00:48:21;5.20;;;2.55;;
5787;SDS011;2920;48.158;12.254;2023-07-02T00:50:46;4.85;;;2.60;;
5787;SDS011;2920;48.158;12.254;2023-07-02T00:53:12;3.85;;;2.80;;
5787;SDS011;2920;48.158;12.254;2023-07-02T00:55:38;3.70;;;3.08;;
5787;SDS011;2920;48.158;12.254;2023-07-02T00:58:03;3.78;;;2.88;;
5787;SDS011;2920;48.158;12.254;2023-07-02T01:00:28;4.55;;;2.78;;
5787;SDS011;2920;48.158;12.254;2023-07-02T01:02:54;3.30;;;2.53;;
5787;SDS011;2920;48.158;12.254;2023-07-02T01:05:25;6.65;;;2.75;;
5787;SDS011;2920;48.158;12.254;2023-07-02T01:07:51;4.35;;;3.03;;
5787;SDS011;2920;48.158;12.254;2023-07-02T01:10:16;5.18;;;3.00;;
5787;SDS011;2920;48.158;12.254;2023-07-02T01:12:41;3.58;;;2.47;;
5787;SDS011;2920;48.158;12.254;2023-07-02T01:15:07;4.60;;;3.40;;
5787;SDS011;2920;48.158;12.254;2023-07-02T01:17:33;4.05;;;2.70;;
5787;SDS011;2920;48.158;12.254;2023-07-02T01:20:05;6.07;;;3.13;;
5787;SDS011;2920;48.158;12.254;2023-07-02T01:22:33;3.90;;;3.00;;
5787;SDS011;2920;48.158;12.254;2023-07-02T01:24:59;3.47;;;2.80;;
5787;SDS011;2920;48.158;12.254;2023-07-02T01:27:27;5.90;;;3.30;;
5787;SDS011;2920;48.158;12.254;2023-07-02T01:29:53;3.83;;;3.25;;
5787;SDS011;2920;48.158;12.254;2023-07-02T01:32:18;3.67;;;2.95;;
5787;SDS011;2920;48.158;12.254;2023-07-02T01:34:44;4.75;;;3.15;;
5787;SDS011;2920;48.158;12.254;2023-07-02T01:37:13;3.67;;;2.88;;
5787;SDS011;2920;48.158;12.254;2023-07-02T01:39:38;6.05;;;3.30;;
5787;SDS011;2920;48.158;12.254;2023-07-02T01:42:08;4.35;;;3.08;;
5787;SDS011;2920;48.158;12.254;2023-07-02T01:44:44;4.22;;;3.10;;
5787;SDS011;2920;48.158;12.254;2023-07-02T01:47:14;4.65;;;3.28;;
5787;SDS011;2920;48.158;12.254;2023-07-02T01:49:40;3.42;;;3.00;;
5787;SDS011;2920;48.158;12.254;2023-07-02T01:52:06;4.78;;;2.85;;
5787;SDS011;2920;48.158;12.254;2023-07-02T01:54:32;3.50;;;2.72;;
5787;SDS011;2920;48.158;12.254;2023-07-02T01:56:58;3.90;;;3.05;;
5787;SDS011;2920;48.158;12.254;2023-07-02T01:59:24;4.60;;;2.90;;
5787;SDS011;2920;48.158;12.254;2023-07-02T02:01:50;4.45;;;3.28;;
5787;SDS011;2920;48.158;12.254;2023-07-02T02:04:15;5.43;;;2.70;;
5787;SDS011;2920;48.158;12.254;2023-07-02T02:06:40;5.88;;;2.85;;
5787;SDS011;2920;48.158;12.254;2023-07-02T02:09:06;5.07;;;2.90;;
5787;SDS011;2920;48.158;12.254;2023-07-02T02:11:32;5.05;;;2.80;;
5787;SDS011;2920;48.158;12.254;2023-07-02T02:13:58;4.07;;;3.25;;
5787;SDS011;2920;48.158;12.254;2023-07-02T02:16:26;4.35;;;2.90;;
5787;SDS011;2920;48.158;12.254;2023-07-02T02:18:52;4.22;;;2.80;;
5787;SDS011;2920;48.158;12.254;2023-07-02T02:21:18;7.30;;;2.80;;
5787;SDS011;2920;48.158;12.254;2023-07-02T02:23:43;8.80;;;2.80;;
5787;SDS011;2920;48.158;12.254;2023-07-02T02:26:09;3.58;;;2.40;;
5787;SDS011;2920;48.158;12.254;2023-07-02T02:28:34;4.05;;;2.80;;
5787;SDS011;2920;48.158;12.254;2023-07-02T02:31:00;3.95;;;2.67;;
5787;SDS011;2920;48.158;12.254;2023-07-02T02:33:25;2.55;;;2.30;;
5787;SDS011;2920;48.158;12.254;2023-07-02T02:35:51;2.60;;;2.25;;
5787;SDS011;2920;48.158;12.254;2023-07-02T02:38:16;4.50;;;2.38;;
5787;SDS011;2920;48.158;12.254;2023-07-02T02:40:42;5.95;;;2.55;;
5787;SDS011;2920;48.158;12.254;2023-07-02T02:43:07;4.53;;;2.65;;
5787;SDS011;2920;48.158;12.254;2023-07-02T02:45:32;3.50;;;2.15;;
5787;SDS011;2920;48.158;12.254;2023-07-02T02:47:57;6.25;;;2.75;;
5787;SDS011;2920;48.158;12.254;2023-07-02T02:50:23;3.22;;;2.05;;
5787;SDS011;2920;48.158;12.254;2023-07-02T02:52:48;2.95;;;2.17;;
5787;SDS011;2920;48.158;12.254;2023-07-02T02:55:13;2.10;;;1.80;;
5787;SDS011;2920;48.158;12.254;2023-07-02T02:57:39;2.65;;;2.08;;
5787;SDS011;2920;48.158;12.254;2023-07-02T03:00:04;3.70;;;2.30;;
5787;SDS011;2920;48.158;12.254;2023-07-02T03:02:31;2.58;;;2.10;;
5787;SDS011;2920;48.158;12.254;2023-07-02T03:04:57;2.90;;;2.13;;
5787;SDS011;2920;48.158;12.254;2023-07-02T03:07:27;2.30;;;1.92;;
5787;SDS011;2920;48.158;12.254;2023-07-02T03:09:52;3.70;;;2.15;;
5787;SDS011;2920;48.158;12.254;2023-07-02T03:12:17;6.25;;;2.08;;
5787;SDS011;2920;48.158;12.254;2023-07-02T03:14:43;3.25;;;2.10;;
5787;SDS011;2920;48.158;12.254;2023-07-02T03:17:08;2.97;;;2.03;;
5787;SDS011;2920;48.158;12.254;2023-07-02T03:19:34;3.38;;;2.40;;
5787;SDS011;2920;48.158;12.254;2023-07-02T03:21:59;3.38;;;2.58;;
5787;SDS011;2920;48.158;12.254;2023-07-02T03:24:24;3.15;;;2.08;;
5787;SDS011;2920;48.158;12.254;2023-07-02T03:26:49;2.70;;;1.88;;
5787;SDS011;2920;48.158;12.254;2023-07-02T03:29:15;2.72;;;2.03;;
5787;SDS011;2920;48.158;12.254;2023-07-02T03:31:41;5.40;;;2.28;;
5787;SDS011;2920;48.158;12.254;2023-07-02T03:34:07;3.90;;;2.00;;
5787;SDS011;2920;48.158;12.254;2023-07-02T03:36:34;4.10;;;2.00;;
5787;SDS011;2920;48.158;12.254;2023-07-02T03:38:59;2.78;;;2.17;;
5787;SDS011;2920;48.158;12.254;2023-07-02T03:41:25;3.03;;;2.13;;
5787;SDS011;2920;48.158;12.254;2023-07-02T03:43:50;2.78;;;2.03;;
5787;SDS011;2920;48.158;12.254;2023-07-02T03:46:16;3.20;;;2.10;;
5787;SDS011;2920;48.158;12.254;2023-07-02T03:48:41;3.15;;;2.13;;
5787;SDS011;2920;48.158;12.254;2023-07-02T03:51:06;4.00;;;2.30;;
5787;SDS011;2920;48.158;12.254;2023-07-02T03:53:32;3.05;;;2.20;;
5787;SDS011;2920;48.158;12.254;2023-07-02T03:55:57;4.40;;;2.10;;
5787;SDS011;2920;48.158;12.254;2023-07-02T03:58:23;4.28;;;2.70;;
5787;SDS011;2920;48.158;12.254;2023-07-02T04:00:48;5.60;;;2.65;;
5787;SDS011;2920;48.158;12.254;2023-07-02T04:03:16;7.57;;;2.50;;
5787;SDS011;2920;48.158;12.254;2023-07-02T04:05:42;5.63;;;2.53;;
5787;SDS011;2920;48.158;12.254;2023-07-02T04:08:07;2.63;;;2.05;;
5787;SDS011;2920;48.158;12.254;2023-07-02T04:10:33;2.75;;;1.90;;
5787;SDS011;2920;48.158;12.254;2023-07-02T04:12:58;1.98;;;1.67;;
5787;SDS011;2920;48.158;12.254;2023-07-02T04:15:23;4.00;;;2.13;;
5787;SDS011;2920;48.158;12.254;2023-07-02T04:17:50;2.85;;;1.90;;
5787;SDS011;2920;48.158;12.254;2023-07-02T04:20:16;3.70;;;2.03;;
5787;SDS011;2920;48.158;12.254;2023-07-02T04:22:41;2.35;;;1.67;;
5787;SDS011;2920;48.158;12.254;2023-07-02T04:25:06;3.30;;;1.90;;
5787;SDS011;2920;48.158;12.254;2023-07-02T04:27:32;6.10;;;2.17;;
5787;SDS011;2920;48.158;12.254;2023-07-02T04:29:57;3.28;;;2.08;;
5787;SDS011;2920;48.158;12.254;2023-07-02T04:32:23;6.70;;;2.58;;
5787;SDS011;2920;48.158;12.254;2023-07-02T04:34:48;5.72;;;2.40;;
5787;SDS011;2920;48.158;12.254;2023-07-02T04:37:14;2.70;;;1.77;;
5787;SDS011;2920;48.158;12.254;2023-07-02T04:39:40;4.05;;;2.40;;
5787;SDS011;2920;48.158;12.254;2023-07-02T04:42:05;5.60;;;2.60;;
5787;SDS011;2920;48.158;12.254;2023-07-02T04:44:31;4.43;;;2.08;;
5787;SDS011;2920;48.158;12.254;2023-07-02T04:47:00;4.90;;;2.30;;
5787;SDS011;2920;48.158;12.254;2023-07-02T04:49:26;3.10;;;2.25;;
5787;SDS011;2920;48.158;12.254;2023-07-02T04:51:52;4.60;;;2.45;;
5787;SDS011;2920;48.158;12.254;2023-07-02T04:54:18;4.88;;;2.17;;
5787;SDS011;2920;48.158;12.254;2023-07-02T04:56:45;3.55;;;2.45;;
5787;SDS011;2920;48.158;12.254;2023-07-02T04:59:11;3.38;;;2.40;;
5787;SDS011;2920;48.158;12.254;2023-07-02T05:01:36;3.80;;;2.38;;
5787;SDS011;2920;48.158;12.254;2023-07-02T05:04:01;3.35;;;2.28;;
5787;SDS011;2920;48.158;12.254;2023-07-02T05:06:27;4.55;;;2.30;;
5787;SDS011;2920;48.158;12.254;2023-07-02T05:08:52;3.15;;;2.05;;
5787;SDS011;2920;48.158;12.254;2023-07-02T05:11:18;6.38;;;2.40;;
5787;SDS011;2920;48.158;12.254;2023-07-02T05:13:43;4.05;;;2.22;;
5787;SDS011;2920;48.158;12.254;2023-07-02T05:16:08;5.43;;;2.53;;
5787;SDS011;2920;48.158;12.254;2023-07-02T05:18:35;6.82;;;1.95;;
5787;SDS011;2920;48.158;12.254;2023-07-02T05:21:00;2.53;;;2.08;;
5787;SDS011;2920;48.158;12.254;2023-07-02T05:23:26;3.60;;;2.33;;
5787;SDS011;2920;48.158;12.254;2023-07-02T05:25:51;3.58;;;2.38;;
5787;SDS011;2920;48.158;12.254;2023-07-02T05:28:17;4.25;;;2.30;;
5787;SDS011;2920;48.158;12.254;2023-07-02T05:30:42;3.72;;;2.00;;
5787;SDS011;2920;48.158;12.254;2023-07-02T05:33:07;4.45;;;2.20;;
5787;SDS011;2920;48.158;12.254;2023-07-02T05:35:32;3.78;;;2.10;;
5787;SDS011;2920;48.158;12.254;2023-07-02T05:37:58;3.78;;;2.17;;
5787;SDS011;2920;48.158;12.254;2023-07-02T05:40:23;4.07;;;1.85;;
5787;SDS011;2920;48.158;12.254;2023-07-02T05:42:48;6.68;;;2.03;;
5787;SDS011;2920;48.158;12.254;2023-07-02T05:45:14;5.82;;;2.33;;
5787;SDS011;2920;48.158;12.254;2023-07-02T05:47:39;2.53;;;1.63;;
5787;SDS011;2920;48.158;12.254;2023-07-02T05:50:05;3.20;;;2.10;;
5787;SDS011;2920;48.158;12.254;2023-07-02T05:52:32;1.88;;;1.58;;
5787;SDS011;2920;48.158;12.254;2023-07-02T05:54:57;3.55;;;2.30;;
5787;SDS011;2920;48.158;12.254;2023-07-02T05:57:22;4.63;;;2.25;;
5787;SDS011;2920;48.158;12.254;2023-07-02T05:59:48;3.13;;;1.90;;
5787;SDS011;2920;48.158;12.254;2023-07-02T06:02:13;5.00;;;2.10;;
5787;SDS011;2920;48.158;12.254;2023-07-02T06:04:38;5.15;;;2.40;;
5787;SDS011;2920;48.158;12.254;2023-07-02T06:07:04;2.80;;;1.98;;
5787;SDS011;2920;48.158;12.254;2023-07-02T06:09:29;4.78;;;2.17;;
5787;SDS011;2920;48.158;12.254;2023-07-02T06:11:54;3.58;;;2.10;;
5787;SDS011;2920;48.158;12.254;2023-07-02T06:14:20;3.75;;;2.30;;
5787;SDS011;2920;48.158;12.254;2023-07-02T06:16:45;4.55;;;2.47;;
5787;SDS011;2920;48.158;12.254;2023-07-02T06:19:10;3.55;;;2.00;;
5787;SDS011;2920;48.158;12.254;2023-07-02T06:21:36;2.95;;;2.00;;
5787;SDS011;2920;48.158;12.254;2023-07-02T06:24:01;3.88;;;2.45;;
5787;SDS011;2920;48.158;12.254;2023-07-02T06:26:27;3.55;;;1.90;;
5787;SDS011;2920;48.158;12.254;2023-07-02T06:28:52;3.67;;;1.85;;
5787;SDS011;2920;48.158;12.254;2023-07-02T06:31:17;3.25;;;2.05;;
5787;SDS011;2920;48.158;12.254;2023-07-02T06:33:43;3.30;;;2.08;;
5787;SDS011;2920;48.158;12.254;2023-07-02T06:36:08;4.25;;;1.95;;
5787;SDS011;2920;48.158;12.254;2023-07-02T06:38:33;4.53;;;1.75;;
5787;SDS011;2920;48.158;12.254;2023-07-02T06:40:59;3.58;;;1.83;;
5787;SDS011;2920;48.158;12.254;2023-07-02T06:43:24;4.00;;;1.90;;
5787;SDS011;2920;48.158;12.254;2023-07-02T06:45:49;3.45;;;2.10;;
5787;SDS011;2920;48.158;12.254;2023-07-02T06:48:15;3.13;;;2.22;;
5787;SDS011;2920;48.158;12.254;2023-07-02T06:50:45;5.25;;;2.30;;
5787;SDS011;2920;48.158;12.254;2023-07-02T06:53:10;3.38;;;2.03;;
5787;SDS011;2920;48.158;12.254;2023-07-02T06:55:36;2.67;;;2.10;;
5787;SDS011;2920;48.158;12.254;2023-07-02T06:58:02;4.35;;;2.33;;
5787;SDS011;2920;48.158;12.254;2023-07-02T07:00:27;4.93;;;2.38;;
5787;SDS011;2920;48.158;12.254;2023-07-02T07:02:52;4.00;;;1.90;;
5787;SDS011;2920;48.158;12.254;2023-07-02T07:05:18;5.47;;;2.33;;
5787;SDS011;2920;48.158;12.254;2023-07-02T07:07:43;3.00;;;2.10;;
5787;SDS011;2920;48.158;12.254;2023-07-02T07:10:08;2.63;;;2.10;;
5787;SDS011;2920;48.158;12.254;2023-07-02T07:12:34;5.18;;;2.38;;
5787;SDS011;2920;48.158;12.254;2023-07-02T07:14:59;5.93;;;2.22;;
5787;SDS011;2920;48.158;12.254;2023-07-02T07:17:24;4.28;;;2.80;;
5787;SDS011;2920;48.158;12.254;2023-07-02T07:19:49;3.10;;;2.47;;
5787;SDS011;2920;48.158;12.254;2023-07-02T07:22:15;3.55;;;2.28;;
5787;SDS011;2920;48.158;12.254;2023-07-02T07:24:41;3.15;;;2.67;;
5787;SDS011;2920;48.158;12.254;2023-07-02T07:27:06;5.57;;;2.50;;
5787;SDS011;2920;48.158;12.254;2023-07-02T07:29:32;4.25;;;2.85;;
5787;SDS011;2920;48.158;12.254;2023-07-02T07:31:57;5.47;;;2.63;;
5787;SDS011;2920;48.158;12.254;2023-07-02T07:34:22;3.63;;;2.50;;
5787;SDS011;2920;48.158;12.254;2023-07-02T07:36:47;4.70;;;2.60;;
5787;SDS011;2920;48.158;12.254;2023-07-02T07:39:13;3.75;;;2.50;;
5787;SDS011;2920;48.158;12.254;2023-07-02T07:41:38;3.50;;;2.22;;
5787;SDS011;2920;48.158;12.254;2023-07-02T07:44:03;4.65;;;2.80;;
5787;SDS011;2920;48.158;12.254;2023-07-02T07:46:29;3.03;;;2.20;;
5787;SDS011;2920;48.158;12.254;2023-07-02T07:48:54;4.43;;;3.05;;
5787;SDS011;2920;48.158;12.254;2023-07-02T07:51:20;7.53;;;3.00;;
5787;SDS011;2920;48.158;12.254;2023-07-02T07:53:45;3.03;;;2.47;;
5787;SDS011;2920;48.158;12.254;2023-07-02T07:56:11;3.65;;;2.47;;
5787;SDS011;2920;48.158;12.254;2023-07-02T07:58:36;8.13;;;3.35;;
5787;SDS011;2920;48.158;12.254;2023-07-02T08:01:02;4.43;;;2.80;;
5787;SDS011;2920;48.158;12.254;2023-07-02T08:03:27;3.30;;;2.60;;
5787;SDS011;2920;48.158;12.254;2023-07-02T08:05:52;5.05;;;2.88;;
5787;SDS011;2920;48.158;12.254;2023-07-02T08:08:18;4.53;;;3.00;;
5787;SDS011;2920;48.158;12.254;2023-07-02T08:10:43;6.82;;;3.00;;
5787;SDS011;2920;48.158;12.254;2023-07-02T08:13:10;5.40;;;2.95;;
5787;SDS011;2920;48.158;12.254;2023-07-02T08:15:35;4.57;;;2.70;;
5787;SDS011;2920;48.158;12.254;2023-07-02T08:18:01;4.65;;;2.67;;
5787;SDS011;2920;48.158;12.254;2023-07-02T08:20:26;2.80;;;2.25;;
5787;SDS011;2920;48.158;12.254;2023-07-02T08:22:51;4.25;;;2.55;;
5787;SDS011;2920;48.158;12.254;2023-07-02T08:25:17;4.55;;;2.50;;
5787;SDS011;2920;48.158;12.254;2023-07-02T08:27:43;3.10;;;1.77;;
5787;SDS011;2920;48.158;12.254;2023-07-02T08:30:09;2.70;;;2.40;;
5787;SDS011;2920;48.158;12.254;2023-07-02T08:32:34;6.35;;;3.50;;
5787;SDS011;2920;48.158;12.254;2023-07-02T08:35:00;5.32;;;2.40;;
5787;SDS011;2920;48.158;12.254;2023-07-02T08:37:25;4.05;;;2.45;;
5787;SDS011;2920;48.158;12.254;2023-07-02T08:39:50;4.35;;;2.63;;
5787;SDS011;2920;48.158;12.254;2023-07-02T08:42:16;6.50;;;2.53;;
5787;SDS011;2920;48.158;12.254;2023-07-02T08:44:42;2.55;;;2.17;;
5787;SDS011;2920;48.158;12.254;2023-07-02T08:47:10;3.58;;;2.72;;
5787;SDS011;2920;48.158;12.254;2023-07-02T08:49:35;3.53;;;2.25;;
5787;SDS011;2920;48.158;12.254;2023-07-02T08:52:00;2.72;;;2.20;;
5787;SDS011;2920;48.158;12.254;2023-07-02T08:54:25;2.90;;;2.10;;
5787;SDS011;2920;48.158;12.254;2023-07-02T08:56:51;3.25;;;2.10;;
5787;SDS011;2920;48.158;12.254;2023-07-02T08:59:16;3.70;;;2.30;;
5787;SDS011;2920;48.158;12.254;2023-07-02T09:01:45;3.55;;;2.40;;
5787;SDS011;2920;48.158;12.254;2023-07-02T09:04:24;3.38;;;2.20;;
5787;SDS011;2920;48.158;12.254;2023-07-02T09:07:06;3.03;;;2.60;;
5787;SDS011;2920;48.158;12.254;2023-07-02T09:09:32;2.78;;;1.98;;
5787;SDS011;2920;48.158;12.254;2023-07-02T09:11:58;3.78;;;2.13;;
5787;SDS011;2920;48.158;12.254;2023-07-02T09:14:27;2.90;;;1.80;;
5787;SDS011;2920;48.158;12.254;2023-07-02T09:17:06;2.40;;;1.70;;
5787;SDS011;2920;48.158;12.254;2023-07-02T09:19:33;3.50;;;1.98;;
5787;SDS011;2920;48.158;12.254;2023-07-02T09:21:59;3.83;;;2.22;;
5787;SDS011;2920;48.158;12.254;2023-07-02T09:24:25;4.93;;;2.70;;
5787;SDS011;2920;48.158;12.254;2023-07-02T09:26:52;3.28;;;2.30;;
5787;SDS011;2920;48.158;12.254;2023-07-02T09:29:30;3.78;;;2.22;;
5787;SDS011;2920;48.158;12.254;2023-07-02T09:32:00;2.08;;;1.88;;
5787;SDS011;2920;48.158;12.254;2023-07-02T09:34:28;2.83;;;2.05;;
5787;SDS011;2920;48.158;12.254;2023-07-02T09:37:00;2.83;;;2.00;;
5787;SDS011;2920;48.158;12.254;2023-07-02T09:39:30;3.50;;;2.00;;
5787;SDS011;2920;48.158;12.254;2023-07-02T09:41:56;3.78;;;2.70;;
5787;SDS011;2920;48.158;12.254;2023-07-02T09:44:32;3.65;;;2.15;;
5787;SDS011;2920;48.158;12.254;2023-07-02T09:47:02;3.80;;;2.50;;
5787;SDS011;2920;48.158;12.254;2023-07-02T09:49:33;4.10;;;2.65;;
5787;SDS011;2920;48.158;12.254;2023-07-02T09:52:02;3.45;;;2.55;;
5787;SDS011;2920;48.158;12.254;2023-07-02T09:54:32;3.30;;;2.60;;
5787;SDS011;2920;48.158;12.254;2023-07-02T09:57:01;4.43;;;2.95;;
5787;SDS011;2920;48.158;12.254;2023-07-02T10:01:53;3.33;;;2.70;;
5787;SDS011;2920;48.158;12.254;2023-07-02T10:04:19;3.75;;;3.05;;
5787;SDS011;2920;48.158;12.254;2023-07-02T10:06:48;3.55;;;2.53;;
5787;SDS011;2920;48.158;12.254;2023-07-02T10:09:15;4.38;;;2.55;;
5787;SDS011;2920;48.158;12.254;2023-07-02T10:11:41;4.72;;;2.70;;
5787;SDS011;2920;48.158;12.254;2023-07-02T10:14:07;3.80;;;2.65;;
5787;SDS011;2920;48.158;12.254;2023-07-02T10:16:32;3.75;;;2.80;;
5787;SDS011;2920;48.158;12.254;2023-07-02T10:19:12;5.85;;;2.53;;
5787;SDS011;2920;48.158;12.254;2023-07-02T10:21:38;3.88;;;2.75;;
5787;SDS011;2920;48.158;12.254;2023-07-02T10:24:13;3.47;;;2.20;;
5787;SDS011;2920;48.158;12.254;2023-07-02T10:26:50;2.92;;;2.13;;
5787;SDS011;2920;48.158;12.254;2023-07-02T10:29:23;4.43;;;2.67;;
5787;SDS011;2920;48.158;12.254;2023-07-02T10:31:52;4.07;;;2.70;;
5787;SDS011;2920;48.158;12.254;2023-07-02T10:34:33;6.38;;;2.53;;
5787;SDS011;2920;48.158;12.254;2023-07-02T10:37:03;2.42;;;1.88;;
5787;SDS011;2920;48.158;12.254;2023-07-02T10:39:38;3.05;;;2.42;;
5787;SDS011;2920;48.158;12.254;2023-07-02T10:42:04;3.72;;;2.08;;
5787;SDS011;2920;48.158;12.254;2023-07-02T10:44:30;3.47;;;2.38;;
5787;SDS011;2920;48.158;12.254;2023-07-02T10:46:57;6.63;;;3.05;;
5787;SDS011;2920;48.158;12.254;2023-07-02T10:49:29;2.35;;;2.13;;
5787;SDS011;2920;48.158;12.254;2023-07-02T10:51:59;7.30;;;2.05;;
5787;SDS011;2920;48.158;12.254;2023-07-02T10:54:25;4.32;;;2.20;;
5787;SDS011;2920;48.158;12.254;2023-07-02T10:56:55;3.55;;;2.63;;
5787;SDS011;2920;48.158;12.254;2023-07-02T10:59:25;4.13;;;2.80;;
5787;SDS011;2920;48.158;12.254;2023-07-02T11:01:50;4.63;;;3.22;;
5787;SDS011;2920;48.158;12.254;2023-07-02T11:04:16;4.35;;;2.88;;
5787;SDS011;2920;48.158;12.254;2023-07-02T11:06:41;5.90;;;2.90;;
5787;SDS011;2920;48.158;12.254;2023-07-02T11:09:15;4.03;;;2.75;;
5787;SDS011;2920;48.158;12.254;2023-07-02T11:11:51;4.53;;;2.72;;
5787;SDS011;2920;48.158;12.254;2023-07-02T11:16:56;4.63;;;3.28;;
5787;SDS011;2920;48.158;12.254;2023-07-02T11:19:23;7.00;;;3.38;;
5787;SDS011;2920;48.158;12.254;2023-07-02T11:21:52;4.80;;;3.28;;
5787;SDS011;2920;48.158;12.254;2023-07-02T11:24:32;7.65;;;4.07;;
5787;SDS011;2920;48.158;12.254;2023-07-02T11:26:59;6.07;;;3.80;;
5787;SDS011;2920;48.158;12.254;2023-07-02T11:29:25;5.10;;;3.47;;
5787;SDS011;2920;48.158;12.254;2023-07-02T11:31:51;6.97;;;3.88;;
5787;SDS011;2920;48.158;12.254;2023-07-02T11:34:17;7.63;;;4.35;;
5787;SDS011;2920;48.158;12.254;2023-07-02T11:36:43;6.20;;;3.60;;
5787;SDS011;2920;48.158;12.254;2023-07-02T11:39:08;8.10;;;4.22;;
5787;SDS011;2920;48.158;12.254;2023-07-02T11:41:37;6.78;;;3.97;;
5787;SDS011;2920;48.158;12.254;2023-07-02T11:44:06;6.38;;;3.63;;
5787;SDS011;2920;48.158;12.254;2023-07-02T11:46:32;7.40;;;4.47;;
5787;SDS011;2920;48.158;12.254;2023-07-02T11:48:58;9.32;;;4.03;;
5787;SDS011;2920;48.158;12.254;2023-07-02T11:51:24;10.23;;;4.20;;
5787;SDS011;2920;48.158;12.254;2023-07-02T11:53:50;7.93;;;4.97;;
5787;SDS011;2920;48.158;12.254;2023-07-02T11:56:15;8.60;;;4.43;;
5787;SDS011;2920;48.158;12.254;2023-07-02T11:58:40;7.40;;;5.07;;
5787;SDS011;2920;48.158;12.254;2023-07-02T12:01:06;10.73;;;5.20;;
5787;SDS011;2920;48.158;12.254;2023-07-02T12:03:32;13.80;;;5.35;;
5787;SDS011;2920;48.158;12.254;2023-07-02T12:05:57;8.77;;;5.50;;
5787;SDS011;2920;48.158;12.254;2023-07-02T12:08:22;7.45;;;4.93;;
5787;SDS011;2920;48.158;12.254;2023-07-02T12:10:48;12.32;;;5.55;;
5787;SDS011;2920;48.158;12.254;2023-07-02T12:13:13;9.70;;;5.35;;
5787;SDS011;2920;48.158;12.254;2023-07-02T12:15:38;9.50;;;5.57;;
5787;SDS011;2920;48.158;12.254;2023-07-02T12:18:04;13.23;;;6.05;;
5787;SDS011;2920;48.158;12.254;2023-07-02T12:20:29;10.57;;;6.47;;
5787;SDS011;2920;48.158;12.254;2023-07-02T12:22:54;11.13;;;6.20;;
5787;SDS011;2920;48.158;12.254;2023-07-02T12:25:20;10.90;;;5.80;;
5787;SDS011;2920;48.158;12.254;2023-07-02T12:27:46;11.80;;;6.35;;
5787;SDS011;2920;48.158;12.254;2023-07-02T12:30:11;11.13;;;6.05;;
5787;SDS011;2920;48.158;12.254;2023-07-02T12:32:39;13.68;;;6.65;;
5787;SDS011;2920;48.158;12.254;2023-07-02T12:35:05;10.97;;;6.53;;
5787;SDS011;2920;48.158;12.254;2023-07-02T12:37:31;11.05;;;6.40;;
5787;SDS011;2920;48.158;12.254;2023-07-02T12:39:56;9.00;;;5.60;;
5787;SDS011;2920;48.158;12.254;2023-07-02T12:42:22;11.20;;;5.82;;
5787;SDS011;2920;48.158;12.254;2023-07-02T12:44:47;9.88;;;5.65;;
5787;SDS011;2920;48.158;12.254;2023-07-02T12:47:12;10.02;;;5.28;;
5787;SDS011;2920;48.158;12.254;2023-07-02T12:49:38;9.88;;;5.78;;
5787;SDS011;2920;48.158;12.254;2023-07-02T12:52:03;13.15;;;6.40;;
5787;SDS011;2920;48.158;12.254;2023-07-02T12:54:29;8.20;;;5.82;;
5787;SDS011;2920;48.158;12.254;2023-07-02T12:56:54;8.13;;;5.55;;
5787;SDS011;2920;48.158;12.254;2023-07-02T12:59:19;12.82;;;6.90;;
5787;SDS011;2920;48.158;12.254;2023-07-02T13:01:45;11.75;;;6.35;;
5787;SDS011;2920;48.158;12.254;2023-07-02T13:04:10;13.50;;;6.57;;
5787;SDS011;2920;48.158;12.254;2023-07-02T13:06:35;11.18;;;6.97;;
5787;SDS011;2920;48.158;12.254;2023-07-02T13:09:05;11.43;;;6.95;;
5787;SDS011;2920;48.158;12.254;2023-07-02T13:11:33;10.20;;;6.82;;
5787;SDS011;2920;48.158;12.254;2023-07-02T13:13:58;12.68;;;6.95;;
5787;SDS011;2920;48.158;12.254;2023-07-02T13:16:24;12.82;;;7.15;;
5787;SDS011;2920;48.158;12.254;2023-07-02T13:18:49;11.10;;;6.68;;
5787;SDS011;2920;48.158;12.254;2023-07-02T13:21:15;11.95;;;6.72;;
5787;SDS011;2920;48.158;12.254;2023-07-02T13:23:40;12.85;;;6.93;;
5787;SDS011;2920;48.158;12.254;2023-07-02T13:26:05;11.40;;;7.30;;
5787;SDS011;2920;48.158;12.254;2023-07-02T13:28:31;10.32;;;6.82;;
5787;SDS011;2920;48.158;12.254;2023-07-02T13:30:56;11.90;;;7.05;;
5787;SDS011;2920;48.158;12.254;2023-07-02T13:33:21;9.70;;;6.75;;
5787;SDS011;2920;48.158;12.254;2023-07-02T13:35:47;13.02;;;7.15;;
5787;SDS011;2920;48.158;12.254;2023-07-02T13:38:12;12.73;;;7.70;;
5787;SDS011;2920;48.158;12.254;2023-07-02T13:40:38;11.82;;;7.57;;
5787;SDS011;2920;48.158;12.254;2023-07-02T13:43:03;11.98;;;7.18;;
5787;SDS011;2920;48.158;12.254;2023-07-02T13:45:28;12.88;;;7.47;;
5787;SDS011;2920;48.158;12.254;2023-07-02T13:47:54;10.85;;;6.97;;
5787;SDS011;2920;48.158;12.254;2023-07-02T13:50:19;13.23;;;7.43;;
5787;SDS011;2920;48.158;12.254;2023-07-02T13:52:44;9.82;;;6.53;;
5787;SDS011;2920;48.158;12.254;2023-07-02T13:55:11;14.57;;;7.15;;
5787;SDS011;2920;48.158;12.254;2023-07-02T13:57:37;12.63;;;8.27;;
5787;SDS011;2920;48.158;12.254;2023-07-02T14:00:02;13.15;;;7.90;;
5787;SDS011;2920;48.158;12.254;2023-07-02T14:02:29;12.85;;;8.15;;
5787;SDS011;2920;48.158;12.254;2023-07-02T14:04:56;15.77;;;8.20;;
5787;SDS011;2920;48.158;12.254;2023-07-02T14:07:21;14.63;;;8.38;;
5787;SDS011;2920;48.158;12.254;2023-07-02T14:09:47;14.20;;;8.70;;
5787;SDS011;2920;48.158;12.254;2023-07-02T14:12:12;14.57;;;9.15;;
5787;SDS011;2920;48.158;12.254;2023-07-02T14:14:38;21.40;;;9.60;;
5787;SDS011;2920;48.158;12.254;2023-07-02T14:17:04;12.95;;;8.75;;
5787;SDS011;2920;48.158;12.254;2023-07-02T14:19:29;16.30;;;9.82;;
5787;SDS011;2920;48.158;12.254;2023-07-02T14:21:54;17.35;;;9.60;;
5787;SDS011;2920;48.158;12.254;2023-07-02T14:24:20;17.58;;;9.10;;
5787;SDS011;2920;48.158;12.254;2023-07-02T14:26:45;14.70;;;8.30;;
5787;SDS011;2920;48.158;12.254;2023-07-02T14:29:10;12.52;;;7.45;;
5787;SDS011;2920;48.158;12.254;2023-07-02T14:31:36;14.65;;;8.93;;
5787;SDS011;2920;48.158;12.254;2023-07-02T14:34:01;12.43;;;7.63;;
5787;SDS011;2920;48.158;12.254;2023-07-02T14:36:26;15.95;;;9.27;;
5787;SDS011;2920;48.158;12.254;2023-07-02T14:38:52;13.20;;;7.82;;
5787;SDS011;2920;48.158;12.254;2023-07-02T14:41:17;13.50;;;8.70;;
5787;SDS011;2920;48.158;12.254;2023-07-02T14:43:42;14.00;;;8.35;;
5787;SDS011;2920;48.158;12.254;2023-07-02T14:46:08;12.55;;;8.68;;
5787;SDS011;2920;48.158;12.254;2023-07-02T14:48:33;18.83;;;9.93;;
5787;SDS011;2920;48.158;12.254;2023-07-02T14:50:59;14.00;;;9.38;;
5787;SDS011;2920;48.158;12.254;2023-07-02T14:53:26;14.98;;;9.30;;
5787;SDS011;2920;48.158;12.254;2023-07-02T14:55:56;13.55;;;9.13;;
5787;SDS011;2920;48.158;12.254;2023-07-02T14:58:23;14.18;;;9.18;;